KELD/ELD METAR and TAF weather

Enter ICAO airport designator
Station Type Date Time Source
KELD METAR 2018/04/20 07:53 UTC NOAA

KELD 200753Z AUTO 00000KT 10SM CLR 06/03 A3033 RMK AO2 SLP270 T00560033


Station Type Date Time Source
KELD Decoded METAR 2018/04/20 07:53 UTC NOAA

SOUTH ARKANSAS REGIONAL, AR, United States (KELD) 33-13N 092-49W 81M
Apr 20, 2018 - 03:53 AM EDT / 2018.04.20 0753 UTC
Wind: Calm:0
Visibility: 10 mile(s):0
Sky conditions: clear
Temperature: 42.1 F (5.6 C)
Dew Point: 37.9 F (3.3 C)
Relative Humidity: 85%
Pressure (altimeter): 30.33 in. Hg (1027 hPa)
ob: KELD 200753Z AUTO 00000KT 10SM CLR 06/03 A3033 RMK AO2 SLP270 T00560033
cycle: 8

Station Type Date Time Source
KELD TAF 2018/04/20 06:24 UTC NOAA

TAF KELD 200523Z 2006/2106 04003KT P6SM SKC
FM201500 07010KT P6SM SCT250
FM210000 08003KT P6SM SKC


Example: see airport list